Saint Marys, PA

2:50 AM EDT on July 25, 2014 (GMT -0400)
Emerald Estates (KPASAINT3) Elev 1870 ft | 41.43 °N, 78.60 °W | Change Station

Current weather conditions updated 6 seconds ago

Clear
Clear
48.0 °F
Feels Like 48 °F
N
0.0
Wind Variable Wind from North
Gusts 0.0 mph

Today is forecast to be Warmer than yesterday.

Today
High -- | Low -- °F
--% Chance of Precip.
Yesterday
High -- | Low -- °F
Precip. -- in
6:02 AM 8:38 PM
Waning Crescent, 3% visible
Pressure 30.06 in
Visibility 10.0 miles
Clouds Clear
Windchill 48 °F
Dew Point 47 °F
Humidity 97%
Rainfall 0.00 in
Snow Depth Not available.
UV 0 out of 12
Pollen 6.40 out of 12
Air Quality Not available.
Flu Activity Not available.
METAR KDUJ 250556Z AUTO 00000KT 10SM CLR 12/09 A3007 RMK AO2 SLP177 T01170094 10194 20117 50006

More Conditions Fewer Conditions

Pressure 30.06 in
Visibility 10.0 miles
Clouds Clear
Windchill 48 °F
Dew Point 47 °F
Humidity 97%
Rainfall 0.00 in
Snow Depth Not available.
UV 0 out of 12
Pollen 6.40 out of 12
Air Quality Not available.
Flu Activity Not available.
METAR KDUJ 250556Z AUTO 00000KT 10SM CLR 12/09 A3007 RMK AO2 SLP177 T01170094 10194 20117 50006

More Conditions Fewer Conditions

10-Day Weather Forecast

Almanac

Astronomy

Jul. 25, 2014 Rise Set
Actual Time 6:02 AM EDT 8:38 PM EDT
Civil Twilight 5:30 AM EDT 9:10 PM EDT
Nautical Twilight 4:50 AM EDT 9:50 PM EDT
Astronomical Twilight 4:05 AM EDT 10:34 PM EDT
Moon 5:00 AM EDT 7:33 PM EDT
Length of Visible Light 15h 39m
Length of Day
14h 36m
Tomorrow will be 1m 52s shorter.
Waning Crescent, 3% of the Moon is Illuminated
Today
Waning Crescent
Jul 26
New
Aug 3
First Quarter
Aug 10
Full
Aug 17
Last Quarter

Today's Extremes

State Highs State Lows

Community

WunderPhotos

Upload Photos

1,737,265 photos uploaded!

Nearby

Snow Depth

Station Depth Elevation
No new snow has been reported.

Earthquake Activity

City Distance Mag. Time & Date
No recent earthquake activity has been reported nearby.
Minimum magnitude displayed is 2.5.

Coastal Water Temperatures

Place Temperature
No Stations Reporting

Nearby Weather Stations

Station Location Temp. Windchill Dew Point Humidity Wind Precip. Elev Updated Type
Emerald Estates, Saint Marys, PA 48.0 °F 48 °F 47 °F 97% North  at  0.0 mph 0.00 in / hr 1870 ft 2:50 AM EDT Rapid Fire
Sterling Run, Driftwood, PA 55.3 °F - 53 °F 92% SE  at  0.0 mph 0.00 in / hr 932 ft 11:19 PM EDT Rapid Fire
Division Street Ext., Mt Jewett, PA 49.3 °F 49 °F -5 °F - North  at  0.0 mph 0.00 in / hr 2245 ft 2:46 AM EDT Normal
Upper Marvin Creek, Smethport, PA 41.4 °F 41 °F 41 °F 99% North  at  0.0 mph 0.00 in / hr 1644 ft 2:50 AM EDT Normal
Holly Terrace, Falls Creek, PA 47.8 °F 48 °F 47 °F 98% South  at  0.0 mph 0.00 in / hr 1473 ft 2:50 AM EDT Rapid Fire

Show More Stations Show Fewer Stations